createdAt,value
2018-07-05T00:00:41.607Z,21.42
2018-07-05T00:03:28.042Z,21.50
2018-07-05T00:06:14.285Z,21.13
2018-07-05T00:09:00.685Z,21.38
2018-07-05T00:11:47.053Z,21.55
2018-07-05T00:14:33.462Z,21.42
2018-07-05T00:17:19.770Z,21.35
2018-07-05T00:20:06.128Z,21.20
2018-07-05T00:22:52.485Z,21.63
2018-07-05T00:25:38.881Z,21.35
2018-07-05T00:28:25.282Z,21.28
2018-07-05T00:31:11.638Z,20.98
2018-07-05T00:33:58.033Z,20.99
2018-07-05T00:36:44.361Z,21.12
2018-07-05T00:39:30.757Z,20.95
2018-07-05T00:42:17.121Z,21.24
2018-07-05T00:45:03.585Z,20.98
2018-07-05T00:47:49.935Z,20.96
2018-07-05T00:50:36.302Z,20.98
2018-07-05T00:53:22.649Z,21.20
2018-07-05T00:56:09.048Z,21.06
2018-07-05T00:58:55.452Z,21.07
2018-07-05T01:01:41.782Z,20.92
2018-07-05T01:04:28.209Z,20.49
2018-07-05T01:07:14.539Z,20.74
2018-07-05T01:10:00.956Z,21.05
2018-07-05T01:12:47.227Z,20.60
2018-07-05T01:15:33.674Z,20.69
2018-07-05T01:18:20.043Z,21.09
2018-07-05T01:21:06.449Z,20.58
2018-07-05T01:23:52.834Z,20.82
2018-07-05T01:26:39.189Z,20.59
2018-07-05T01:29:25.612Z,20.11
2018-07-05T01:32:11.982Z,20.54
2018-07-05T01:34:58.366Z,20.63
2018-07-05T01:37:44.745Z,20.42
2018-07-05T01:40:31.216Z,20.10
2018-07-05T01:43:17.465Z,20.08
2018-07-05T01:46:03.856Z,20.65
2018-07-05T01:48:50.247Z,20.49
2018-07-05T01:51:36.605Z,20.39
2018-07-05T01:54:23.000Z,20.55
2018-07-05T01:57:09.351Z,20.49
2018-07-05T01:59:55.729Z,20.54
2018-07-05T02:02:42.097Z,20.28
2018-07-05T02:05:28.424Z,20.29
2018-07-05T02:08:14.906Z,20.58
2018-07-05T02:11:01.193Z,20.03
2018-07-05T02:13:47.568Z,20.35
2018-07-05T02:16:33.953Z,20.18
2018-07-05T02:19:20.289Z,20.18
2018-07-05T02:22:06.653Z,20.39
2018-07-05T02:24:53.097Z,20.67
2018-07-05T02:27:39.447Z,20.28
2018-07-05T02:30:25.837Z,20.67
2018-07-05T02:33:12.045Z,20.45
2018-07-05T02:35:58.414Z,20.50
2018-07-05T02:38:48.905Z,20.37
2018-07-05T02:41:35.084Z,20.39
2018-07-05T02:44:21.294Z,20.50
2018-07-05T02:47:07.643Z,20.42
2018-07-05T02:49:53.989Z,20.19
2018-07-05T02:52:40.398Z,20.26
2018-07-05T02:55:26.823Z,20.25
2018-07-05T02:58:13.231Z,20.23
2018-07-05T03:00:59.580Z,20.45
2018-07-05T03:03:45.917Z,20.59
2018-07-05T03:06:32.285Z,20.56
2018-07-05T03:09:18.724Z,20.11
2018-07-05T03:12:05.111Z,20.09
2018-07-05T03:14:51.549Z,20.50
2018-07-05T03:17:37.957Z,20.33
2018-07-05T03:20:24.329Z,20.04
2018-07-05T03:23:10.711Z,20.19
2018-07-05T03:25:57.118Z,20.33
2018-07-05T03:28:43.462Z,20.50
2018-07-05T03:31:29.824Z,19.99
2018-07-05T03:34:16.201Z,20.30
2018-07-05T03:37:02.645Z,20.19
2018-07-05T03:39:49.016Z,20.53
2018-07-05T03:42:35.274Z,20.50
2018-07-05T03:45:21.626Z,20.66
2018-07-05T03:48:08.201Z,20.61
2018-07-05T03:50:54.542Z,20.46
2018-07-05T03:53:42.430Z,20.36
2018-07-05T03:56:28.777Z,20.63
2018-07-05T03:59:15.201Z,20.75
2018-07-05T04:02:01.598Z,21.24
2018-07-05T04:04:48.003Z,21.01
2018-07-05T04:07:34.407Z,20.98
2018-07-05T04:10:20.697Z,21.09
2018-07-05T04:13:06.957Z,21.07
2018-07-05T04:15:53.311Z,21.17
2018-07-05T04:18:39.706Z,21.31
2018-07-05T04:21:26.163Z,21.33
2018-07-05T04:24:12.398Z,21.46
2018-07-05T04:26:58.808Z,21.18
2018-07-05T04:29:45.207Z,21.25
2018-07-05T04:32:31.567Z,21.72
2018-07-05T04:35:17.935Z,21.54
2018-07-05T04:38:04.305Z,21.98
2018-07-05T04:40:50.719Z,21.68
2018-07-05T04:43:37.051Z,21.75
2018-07-05T04:46:23.418Z,22.29
2018-07-05T04:49:09.810Z,22.55
2018-07-05T04:51:56.156Z,22.73
2018-07-05T04:54:42.448Z,22.79
2018-07-05T04:57:28.815Z,22.89
2018-07-05T05:00:15.193Z,22.68
2018-07-05T05:03:01.566Z,23.31
2018-07-05T05:05:47.864Z,23.31
2018-07-05T05:08:34.195Z,23.74
2018-07-05T05:11:20.442Z,24.02
2018-07-05T05:14:06.836Z,23.78
2018-07-05T05:16:53.217Z,24.13
2018-07-05T05:19:39.513Z,24.26
2018-07-05T05:22:25.871Z,24.96
2018-07-05T05:25:12.287Z,25.99
2018-07-05T05:27:58.480Z,27.36
2018-07-05T05:30:44.888Z,27.63
2018-07-05T05:33:31.160Z,28.31
2018-07-05T05:36:17.585Z,29.27
2018-07-05T05:39:04.972Z,30.67
2018-07-05T05:41:51.198Z,29.72
2018-07-05T05:44:37.537Z,30.47
2018-07-05T05:47:23.725Z,30.55
2018-07-05T05:50:10.178Z,31.29
2018-07-05T05:52:56.621Z,31.21
2018-07-05T05:55:42.880Z,31.91
2018-07-05T05:58:29.154Z,32.78
2018-07-05T06:01:15.652Z,32.38
2018-07-05T06:04:01.902Z,32.54
2018-07-05T06:06:48.324Z,32.57
2018-07-05T06:09:35.610Z,33.34
2018-07-05T06:12:21.965Z,32.57
2018-07-05T06:15:08.405Z,31.04
2018-07-05T06:17:54.748Z,31.65
2018-07-05T06:20:41.511Z,31.73
2018-07-05T06:23:28.650Z,32.10
2018-07-05T06:26:15.058Z,32.98
2018-07-05T06:29:01.463Z,34.71
2018-07-05T06:31:47.851Z,33.49
2018-07-05T06:34:34.263Z,33.54
2018-07-05T06:37:20.629Z,33.16
2018-07-05T06:40:06.998Z,33.74
2018-07-05T06:42:53.401Z,33.54
2018-07-05T06:45:39.809Z,34.87
2018-07-05T06:48:26.227Z,35.36
2018-07-05T06:51:12.609Z,35.14
2018-07-05T06:53:59.012Z,35.11
2018-07-05T06:56:45.378Z,35.64
2018-07-05T06:59:31.708Z,34.53
2018-07-05T07:02:18.118Z,35.39
2018-07-05T07:05:04.498Z,35.08
2018-07-05T07:07:50.890Z,34.31
2018-07-05T07:10:37.197Z,37.20
2018-07-05T07:13:23.573Z,35.44
2018-07-05T07:16:09.922Z,36.23
2018-07-05T07:18:56.315Z,36.01
2018-07-05T07:21:42.574Z,35.55
2018-07-05T07:24:29.010Z,36.06
2018-07-05T07:27:15.326Z,35.37
2018-07-05T07:30:01.689Z,35.54
2018-07-05T07:32:48.144Z,37.44
2018-07-05T07:35:34.508Z,36.80
2018-07-05T07:38:20.732Z,36.23
2018-07-05T07:41:07.140Z,35.74
2018-07-05T07:43:41.073Z,37.29
2018-07-05T07:46:08.897Z,38.36
2018-07-05T07:48:36.723Z,38.83
2018-07-05T07:51:04.550Z,39.06
2018-07-05T07:53:32.368Z,38.69
2018-07-05T07:56:00.200Z,38.49
2018-07-05T07:58:28.071Z,37.53
2018-07-05T08:00:55.973Z,37.63
2018-07-05T08:03:23.777Z,36.02
2018-07-05T08:05:51.652Z,35.44
2018-07-05T08:08:19.466Z,35.95
2018-07-05T08:10:47.266Z,36.68
2018-07-05T08:13:15.213Z,36.41
2018-07-05T08:15:43.205Z,36.25
2018-07-05T08:18:11.019Z,36.37
2018-07-05T08:20:38.908Z,36.60
2018-07-05T08:23:06.816Z,35.84
2018-07-05T08:25:34.657Z,37.22
2018-07-05T08:28:02.515Z,35.15
2018-07-05T08:30:30.312Z,34.62
2018-07-05T08:35:24.970Z,34.77
2018-07-05T08:37:52.845Z,35.28
2018-07-05T08:40:20.677Z,36.37
2018-07-05T08:42:48.829Z,35.93
2018-07-05T08:45:16.948Z,35.03
2018-07-05T08:47:45.020Z,34.53
2018-07-05T08:50:12.867Z,35.20
2018-07-05T08:52:40.690Z,35.65
2018-07-05T08:55:08.499Z,36.57
2018-07-05T08:57:36.379Z,34.84
2018-07-05T09:00:04.178Z,34.30
2018-07-05T09:02:32.090Z,33.62
2018-07-05T09:04:59.906Z,34.27
2018-07-05T09:07:27.787Z,33.43
2018-07-05T09:09:55.644Z,33.14
2018-07-05T09:12:23.505Z,33.81
2018-07-05T09:14:51.338Z,32.01
2018-07-05T09:17:19.139Z,31.97
2018-07-05T09:19:46.941Z,31.38
2018-07-05T09:22:14.746Z,31.53
2018-07-05T09:24:42.578Z,31.52
2018-07-05T09:27:10.385Z,30.95
2018-07-05T09:29:38.247Z,29.89
2018-07-05T09:32:06.041Z,30.90
2018-07-05T09:34:33.997Z,30.72
2018-07-05T09:37:01.828Z,30.65
2018-07-05T09:39:29.667Z,31.02
2018-07-05T09:41:57.493Z,30.48
2018-07-05T09:44:25.311Z,31.15
2018-07-05T09:46:53.143Z,30.86
2018-07-05T09:49:20.971Z,30.87
2018-07-05T09:51:48.786Z,31.21
2018-07-05T09:54:16.636Z,30.92
2018-07-05T09:56:44.471Z,30.98
2018-07-05T09:59:12.549Z,30.88
2018-07-05T10:01:40.350Z,30.92
2018-07-05T10:04:08.178Z,31.33
2018-07-05T10:06:36.001Z,31.20
2018-07-05T10:09:04.827Z,30.89
2018-07-05T10:11:32.653Z,30.68
2018-07-05T10:14:00.706Z,30.22
2018-07-05T10:16:28.784Z,30.06
2018-07-05T10:18:56.672Z,29.74
2018-07-05T10:21:24.482Z,29.56
2018-07-05T10:23:52.368Z,29.76
2018-07-05T10:26:20.177Z,29.13
2018-07-05T10:29:00.322Z,28.60
2018-07-05T10:31:47.152Z,27.62
2018-07-05T10:34:21.145Z,27.49
2018-07-05T10:36:48.949Z,26.74
2018-07-05T10:39:16.769Z,26.57
2018-07-05T10:41:57.290Z,26.14
2018-07-05T10:44:43.850Z,26.13
2018-07-05T10:47:31.406Z,25.95
2018-07-05T10:50:17.996Z,25.80
2018-07-05T10:53:04.579Z,24.72
2018-07-05T10:55:51.168Z,25.19
2018-07-05T10:58:37.764Z,25.48
2018-07-05T11:01:24.429Z,25.85
2018-07-05T11:04:10.981Z,26.08
2018-07-05T11:06:57.498Z,25.91
2018-07-05T11:09:44.020Z,25.83
2018-07-05T11:12:30.686Z,25.54
2018-07-05T11:15:17.350Z,25.21
2018-07-05T11:18:04.061Z,24.69
2018-07-05T11:20:50.681Z,24.66
2018-07-05T11:23:37.158Z,24.66
2018-07-05T11:26:23.824Z,24.22
2018-07-05T11:29:10.423Z,24.44
2018-07-05T11:31:57.072Z,24.74
2018-07-05T11:34:43.690Z,24.68
2018-07-05T11:37:30.318Z,25.12
2018-07-05T11:40:17.235Z,24.93
2018-07-05T11:43:03.705Z,24.91
2018-07-05T11:45:50.373Z,25.08
2018-07-05T11:48:37.031Z,25.45
2018-07-05T11:51:23.592Z,25.39
2018-07-05T11:54:10.351Z,25.40
2018-07-05T11:59:57.689Z,24.68
2018-07-05T12:02:44.404Z,24.49
2018-07-05T12:05:30.806Z,24.24
2018-07-05T12:08:17.282Z,24.06
2018-07-05T12:11:03.907Z,24.24
2018-07-05T12:13:50.511Z,24.18
2018-07-05T12:16:37.107Z,24.05
2018-07-05T12:19:23.635Z,23.44
2018-07-05T12:22:10.287Z,23.65
2018-07-05T12:24:56.842Z,23.55
2018-07-05T12:27:43.304Z,23.69
2018-07-05T12:30:30.113Z,24.12
2018-07-05T12:33:16.538Z,24.21
2018-07-05T12:36:02.838Z,24.14
2018-07-05T12:38:49.470Z,24.47
2018-07-05T12:41:37.018Z,24.84
2018-07-05T12:44:23.465Z,24.49
2018-07-05T12:47:09.984Z,24.80
2018-07-05T12:49:56.432Z,23.85
2018-07-05T12:52:43.579Z,23.86
2018-07-05T12:55:30.098Z,23.97
2018-07-05T12:58:16.703Z,24.26
2018-07-05T13:01:03.298Z,23.85
2018-07-05T13:03:49.885Z,23.57
2018-07-05T13:06:36.446Z,23.34
2018-07-05T13:09:22.972Z,23.32
2018-07-05T13:12:09.430Z,24.04
2018-07-05T13:14:56.017Z,24.17
2018-07-05T13:17:42.641Z,24.17
2018-07-05T13:20:29.031Z,23.53
2018-07-05T13:23:15.449Z,24.03
2018-07-05T13:26:02.034Z,24.43
2018-07-05T13:28:48.514Z,24.11
2018-07-05T13:31:35.074Z,23.92
2018-07-05T13:34:21.489Z,24.12
2018-07-05T13:37:07.932Z,24.66
2018-07-05T13:39:55.720Z,24.39
2018-07-05T13:42:42.228Z,24.07
2018-07-05T13:45:28.644Z,23.98
2018-07-05T13:48:15.087Z,24.36
2018-07-05T13:51:01.654Z,24.53
2018-07-05T13:53:48.172Z,24.88
2018-07-05T13:56:34.825Z,24.88
2018-07-05T13:59:21.489Z,25.08
2018-07-05T14:02:08.028Z,25.51
2018-07-05T14:04:54.756Z,25.42
2018-07-05T14:07:42.318Z,26.07
2018-07-05T14:10:28.897Z,26.09
2018-07-05T14:13:15.379Z,26.60
2018-07-05T14:16:01.990Z,26.76
2018-07-05T14:18:48.497Z,26.13
2018-07-05T14:21:35.081Z,26.46
2018-07-05T14:24:21.638Z,26.14
2018-07-05T14:27:08.217Z,26.55
2018-07-05T14:29:54.897Z,26.60
2018-07-05T14:32:41.290Z,26.27
2018-07-05T14:35:27.693Z,26.41
2018-07-05T14:38:14.044Z,26.01
2018-07-05T14:41:00.650Z,25.79
2018-07-05T14:43:47.549Z,25.81
2018-07-05T14:46:35.234Z,26.08
2018-07-05T14:49:21.774Z,26.22
2018-07-05T14:52:08.334Z,26.98
2018-07-05T14:54:54.693Z,26.82
2018-07-05T14:57:41.201Z,26.05
2018-07-05T15:00:27.696Z,26.48
2018-07-05T15:03:14.042Z,25.98
2018-07-05T15:06:00.506Z,25.90
2018-07-05T15:08:47.232Z,26.59
2018-07-05T15:11:33.509Z,26.56
2018-07-05T15:14:20.138Z,26.75
2018-07-05T15:17:06.545Z,27.13
2018-07-05T15:19:53.074Z,27.15
2018-07-05T15:22:39.624Z,26.90
2018-07-05T15:25:26.261Z,26.05
2018-07-05T15:28:12.865Z,26.38
2018-07-05T15:30:59.647Z,26.07
2018-07-05T15:33:46.129Z,26.43
2018-07-05T15:36:32.719Z,26.66
2018-07-05T15:39:19.187Z,26.92
2018-07-05T15:42:05.529Z,25.66
2018-07-05T15:44:51.919Z,25.87
2018-07-05T15:47:38.775Z,26.14
2018-07-05T15:50:25.301Z,26.04
2018-07-05T15:53:12.190Z,25.91
2018-07-05T15:55:58.733Z,26.22
2018-07-05T15:58:45.152Z,26.03
2018-07-05T16:01:31.626Z,25.20
2018-07-05T16:04:18.182Z,25.18
2018-07-05T16:07:04.717Z,25.73
2018-07-05T16:09:51.442Z,26.20
2018-07-05T16:12:37.965Z,26.50
2018-07-05T16:15:24.532Z,26.60
2018-07-05T16:18:11.302Z,26.86
2018-07-05T16:20:57.782Z,26.36
2018-07-05T16:23:44.395Z,26.19
2018-07-05T16:26:30.916Z,26.05
2018-07-05T16:29:17.432Z,25.77
2018-07-05T16:32:04.007Z,25.61
2018-07-05T16:34:50.525Z,25.98
2018-07-05T16:37:37.105Z,25.53
2018-07-05T16:40:23.557Z,26.16
2018-07-05T16:43:10.125Z,25.97
2018-07-05T16:45:56.829Z,25.86
2018-07-05T16:48:43.317Z,25.74
2018-07-05T16:51:29.912Z,26.24
2018-07-05T16:54:16.381Z,26.14
2018-07-05T16:57:03.059Z,26.92
2018-07-05T16:59:49.742Z,26.87
2018-07-05T17:02:36.314Z,26.18
2018-07-05T17:05:22.681Z,25.99
2018-07-05T17:08:09.254Z,26.06
2018-07-05T17:10:56.107Z,26.19
2018-07-05T17:13:42.665Z,26.33
2018-07-05T17:16:28.997Z,26.79
2018-07-05T17:19:15.634Z,26.87
2018-07-05T17:22:01.876Z,26.77
2018-07-05T17:24:48.589Z,26.70
2018-07-05T17:27:35.283Z,26.67
2018-07-05T17:30:21.802Z,27.30
2018-07-05T17:33:08.474Z,27.05
2018-07-05T17:35:55.069Z,26.68
2018-07-05T17:38:41.613Z,27.32
2018-07-05T17:41:28.090Z,27.30
2018-07-05T17:44:14.782Z,27.09
2018-07-05T17:47:01.413Z,26.66
2018-07-05T17:49:47.838Z,26.02
2018-07-05T17:52:34.349Z,26.96
2018-07-05T17:55:21.061Z,26.54
2018-07-05T17:58:07.586Z,25.71
2018-07-05T18:00:54.148Z,26.42
2018-07-05T18:03:40.740Z,26.47
2018-07-05T18:06:27.361Z,25.80
2018-07-05T18:09:13.859Z,26.15
2018-07-05T18:12:00.554Z,25.98
2018-07-05T18:14:46.949Z,26.44
2018-07-05T18:17:33.592Z,26.62
2018-07-05T18:20:20.196Z,26.46
2018-07-05T18:23:06.848Z,26.41
2018-07-05T18:25:53.289Z,26.36
2018-07-05T18:28:40.030Z,25.87
2018-07-05T18:31:26.437Z,25.30
2018-07-05T18:34:13.025Z,25.82
2018-07-05T18:36:59.612Z,25.70
2018-07-05T18:39:46.173Z,25.78
2018-07-05T18:42:32.733Z,25.78
2018-07-05T18:45:19.145Z,25.95
2018-07-05T18:48:05.749Z,25.82
2018-07-05T18:50:52.325Z,25.65
2018-07-05T18:53:38.837Z,25.95
2018-07-05T18:56:25.491Z,25.86
2018-07-05T18:59:12.080Z,25.91
2018-07-05T19:01:58.678Z,25.83
2018-07-05T19:04:45.169Z,25.41
2018-07-05T19:07:31.674Z,25.49
2018-07-05T19:10:18.449Z,25.47
2018-07-05T19:13:05.029Z,25.34
2018-07-05T19:15:51.525Z,25.10
2018-07-05T19:18:38.242Z,25.18
2018-07-05T19:21:24.834Z,24.99
2018-07-05T19:24:11.513Z,24.91
2018-07-05T19:26:58.074Z,25.28
2018-07-05T19:29:44.681Z,24.91
2018-07-05T19:32:31.257Z,25.21
2018-07-05T19:35:17.857Z,25.17
2018-07-05T19:38:04.423Z,24.82
2018-07-05T19:40:50.898Z,25.23
2018-07-05T19:43:37.368Z,25.26
2018-07-05T19:46:23.877Z,25.17
2018-07-05T19:49:10.579Z,25.04
2018-07-05T19:51:57.074Z,25.24
2018-07-05T19:54:43.585Z,25.00
2018-07-05T19:57:30.067Z,25.12
2018-07-05T20:00:16.641Z,25.10
2018-07-05T20:03:03.050Z,25.17
2018-07-05T20:05:49.392Z,25.12
2018-07-05T20:08:35.924Z,24.73
2018-07-05T20:11:22.509Z,24.69
2018-07-05T20:14:09.261Z,24.90
2018-07-05T20:16:55.717Z,24.74
2018-07-05T20:19:42.101Z,24.87
2018-07-05T20:22:28.545Z,24.84
2018-07-05T20:25:15.230Z,25.16
2018-07-05T20:28:01.819Z,24.73
2018-07-05T20:30:48.585Z,24.57
2018-07-05T20:33:35.314Z,24.47
2018-07-05T20:36:21.798Z,24.55
2018-07-05T20:39:08.789Z,24.47
2018-07-05T20:41:54.981Z,24.24
2018-07-05T20:44:41.421Z,24.36
2018-07-05T20:47:27.790Z,23.89
2018-07-05T20:50:14.297Z,24.35
2018-07-05T20:53:00.775Z,24.20
2018-07-05T20:55:47.239Z,23.79
2018-07-05T20:58:33.507Z,23.94
2018-07-05T21:01:20.817Z,23.92
2018-07-05T21:04:07.493Z,23.86
2018-07-05T21:06:54.102Z,23.31
2018-07-05T21:09:40.887Z,23.52
2018-07-05T21:12:27.541Z,23.33
2018-07-05T21:15:14.363Z,23.64
2018-07-05T21:18:01.196Z,23.37
2018-07-05T21:20:47.940Z,23.94
2018-07-05T21:23:34.123Z,23.32
2018-07-05T21:26:20.580Z,23.40
2018-07-05T21:29:06.970Z,23.25
2018-07-05T21:31:53.285Z,23.49
2018-07-05T21:34:39.677Z,23.91
2018-07-05T21:37:26.043Z,23.69
2018-07-05T21:40:12.473Z,24.23
2018-07-05T21:42:58.858Z,23.50
2018-07-05T21:45:45.249Z,23.83
2018-07-05T21:48:31.625Z,23.92
2018-07-05T21:51:18.059Z,23.55
2018-07-05T21:54:04.440Z,23.87
2018-07-05T21:56:50.834Z,23.38
2018-07-05T21:59:37.187Z,23.50
2018-07-05T22:02:23.571Z,23.46
2018-07-05T22:05:13.211Z,23.36
2018-07-05T22:07:59.489Z,23.22
2018-07-05T22:10:45.998Z,23.51
2018-07-05T22:13:32.457Z,23.33
2018-07-05T22:16:18.965Z,23.03
2018-07-05T22:19:10.607Z,23.24
2018-07-05T22:22:02.074Z,23.11
2018-07-05T22:26:56.785Z,22.33
2018-07-05T22:29:48.508Z,22.28
2018-07-05T22:32:34.770Z,21.99
2018-07-05T22:35:21.199Z,22.38
2018-07-05T22:38:07.537Z,21.71
2018-07-05T22:40:53.913Z,22.16
2018-07-05T22:43:41.318Z,21.86
2018-07-05T22:46:27.745Z,22.23
2018-07-05T22:49:14.145Z,21.71
2018-07-05T22:52:00.618Z,22.30
2018-07-05T22:54:46.982Z,22.32
2018-07-05T22:57:33.405Z,22.37
2018-07-05T23:00:19.699Z,22.25
2018-07-05T23:03:06.115Z,22.12
2018-07-05T23:05:52.503Z,22.12
2018-07-05T23:08:38.862Z,21.62
2018-07-05T23:11:25.249Z,22.19
2018-07-05T23:14:11.665Z,21.92
2018-07-05T23:16:58.176Z,22.22
2018-07-05T23:19:44.577Z,22.12
2018-07-05T23:22:30.876Z,21.97
2018-07-05T23:25:17.209Z,21.91
2018-07-05T23:28:03.547Z,21.87
2018-07-05T23:30:49.963Z,21.31
2018-07-05T23:33:36.302Z,21.12
2018-07-05T23:36:22.546Z,21.61
2018-07-05T23:39:08.899Z,21.83
2018-07-05T23:41:55.354Z,21.55
2018-07-05T23:44:41.748Z,21.54
2018-07-05T23:47:28.195Z,21.33
2018-07-05T23:50:14.466Z,21.38
2018-07-05T23:53:00.882Z,21.15
2018-07-05T23:55:47.322Z,21.05
2018-07-05T23:58:33.726Z,20.66
